createdAt,value
2018-11-04T00:00:13.335Z,2.50
2018-11-04T00:02:45.013Z,2.50
2018-11-04T00:05:15.909Z,2.50
2018-11-04T00:07:47.150Z,2.50
2018-11-04T00:10:17.542Z,2.60
2018-11-04T00:12:47.985Z,2.70
2018-11-04T00:15:18.387Z,2.90
2018-11-04T00:17:48.590Z,3.00
2018-11-04T00:20:18.930Z,3.20
2018-11-04T00:22:49.056Z,3.20
2018-11-04T00:25:19.834Z,3.30
2018-11-04T00:27:50.266Z,3.40
2018-11-04T00:30:21.220Z,3.60
2018-11-04T00:32:51.599Z,3.60
2018-11-04T00:35:22.178Z,3.60
2018-11-04T00:37:53.276Z,3.70
2018-11-04T00:40:23.599Z,3.90
2018-11-04T00:42:54.098Z,3.90
2018-11-04T00:45:25.255Z,3.90
2018-11-04T00:47:55.715Z,3.90
2018-11-04T00:50:26.503Z,3.80
2018-11-04T00:52:56.815Z,3.80
2018-11-04T00:55:28.109Z,3.70
2018-11-04T00:57:58.406Z,3.70
2018-11-04T01:00:29.237Z,3.60
2018-11-04T01:03:00.211Z,3.50
2018-11-04T01:05:30.932Z,3.40
2018-11-04T01:08:01.204Z,3.40
2018-11-04T01:10:31.872Z,3.40
2018-11-04T01:13:02.207Z,3.40
2018-11-04T01:15:32.407Z,3.40
2018-11-04T01:18:02.292Z,3.40
2018-11-04T01:20:33.341Z,3.50
2018-11-04T01:23:03.830Z,3.40
2018-11-04T01:25:34.133Z,3.50
2018-11-04T01:28:05.816Z,3.50
2018-11-04T01:30:36.845Z,3.70
2018-11-04T01:33:07.163Z,3.80
2018-11-04T01:35:37.649Z,3.90
2018-11-04T01:38:08.304Z,3.90
2018-11-04T01:40:38.627Z,4.10
2018-11-04T01:43:09.824Z,4.10
2018-11-04T01:45:40.659Z,4.20
2018-11-04T01:48:10.961Z,4.20
2018-11-04T01:50:41.686Z,4.20
2018-11-04T01:53:12.042Z,4.10
2018-11-04T01:55:42.366Z,4.20
2018-11-04T01:58:13.956Z,4.10
2018-11-04T02:00:45.244Z,4.10
2018-11-04T02:03:15.248Z,4.00
2018-11-04T02:05:45.819Z,4.10
2018-11-04T02:08:15.970Z,4.20
2018-11-04T02:10:47.074Z,4.20
2018-11-04T02:13:17.261Z,4.30
2018-11-04T02:15:47.143Z,4.30
2018-11-04T02:18:17.160Z,4.30
2018-11-04T02:20:47.288Z,4.40
2018-11-04T02:23:17.594Z,4.40
2018-11-04T02:25:48.094Z,4.50
2018-11-04T02:28:18.314Z,4.60
2018-11-04T02:30:48.636Z,4.60
2018-11-04T02:33:18.918Z,4.70
2018-11-04T02:35:49.310Z,4.60
2018-11-04T02:38:19.654Z,4.60
2018-11-04T02:40:50.702Z,4.70
2018-11-04T02:43:21.102Z,4.70
2018-11-04T02:45:52.732Z,4.70
2018-11-04T02:48:23.090Z,4.70
2018-11-04T02:50:53.712Z,4.70
2018-11-04T02:53:25.458Z,4.80
2018-11-04T02:55:56.522Z,4.70
2018-11-04T02:58:27.254Z,4.70
2018-11-04T03:00:57.434Z,4.70
2018-11-04T03:03:27.749Z,4.70
2018-11-04T03:05:58.416Z,4.70
2018-11-04T03:08:28.537Z,4.70
2018-11-04T03:11:00.517Z,4.60
2018-11-04T03:13:31.239Z,4.50
2018-11-04T03:16:01.387Z,4.50
2018-11-04T03:18:31.379Z,4.40
2018-11-04T03:21:02.209Z,4.40
2018-11-04T03:23:32.937Z,4.50
2018-11-04T03:26:03.977Z,4.40
2018-11-04T03:28:34.619Z,4.40
2018-11-04T03:31:05.599Z,4.30
2018-11-04T03:33:36.199Z,4.30
2018-11-04T03:36:06.790Z,4.30
2018-11-04T03:38:37.361Z,4.30
2018-11-04T03:41:07.747Z,4.40
2018-11-04T03:43:38.049Z,4.40
2018-11-04T03:46:08.985Z,4.60
2018-11-04T03:48:39.385Z,4.60
2018-11-04T03:51:09.540Z,4.70
2018-11-04T03:53:41.186Z,4.70
2018-11-04T03:56:11.510Z,4.80
2018-11-04T03:58:41.675Z,4.80
2018-11-04T04:01:12.920Z,4.90
2018-11-04T04:03:43.214Z,4.90
2018-11-04T04:06:13.706Z,4.90
2018-11-04T04:08:43.880Z,5.00
2018-11-04T04:11:14.080Z,5.00
2018-11-04T04:13:44.694Z,5.00
2018-11-04T04:16:14.960Z,5.10
2018-11-04T04:18:45.362Z,5.10
2018-11-04T04:21:15.683Z,5.10
2018-11-04T04:23:45.861Z,5.10
2018-11-04T04:26:16.490Z,5.10
2018-11-04T04:28:46.781Z,5.10
2018-11-04T04:31:17.066Z,5.10
2018-11-04T04:33:47.747Z,5.00
2018-11-04T04:36:18.948Z,5.00
2018-11-04T04:38:49.227Z,5.00
2018-11-04T04:41:19.569Z,5.00
2018-11-04T04:43:50.328Z,4.90
2018-11-04T04:46:20.713Z,4.90
2018-11-04T04:48:51.119Z,4.90
2018-11-04T04:51:22.521Z,4.90
2018-11-04T04:53:53.181Z,4.90
2018-11-04T04:56:23.663Z,4.90
2018-11-04T04:58:53.795Z,5.00
2018-11-04T05:01:25.312Z,5.00
2018-11-04T05:03:55.546Z,5.00
2018-11-04T05:06:26.300Z,5.00
2018-11-04T05:08:57.320Z,5.00
2018-11-04T05:11:27.510Z,5.00
2018-11-04T05:13:58.024Z,5.00
2018-11-04T05:16:28.249Z,5.00
2018-11-04T05:18:58.570Z,5.00
2018-11-04T05:21:28.453Z,4.90
2018-11-04T05:23:58.843Z,4.80
2018-11-04T05:26:29.688Z,4.70
2018-11-04T05:28:59.668Z,4.50
2018-11-04T05:31:30.409Z,4.40
2018-11-04T05:34:00.793Z,4.30
2018-11-04T05:36:31.450Z,4.20
2018-11-04T05:39:01.751Z,4.10
2018-11-04T05:41:34.212Z,3.90
2018-11-04T05:44:04.681Z,3.90
2018-11-04T05:46:35.491Z,3.80
2018-11-04T05:49:05.679Z,3.70
2018-11-04T05:51:36.605Z,3.60
2018-11-04T05:54:07.799Z,3.50
2018-11-04T05:56:38.050Z,3.60
2018-11-04T05:59:08.551Z,3.60
2018-11-04T06:01:39.463Z,3.60
2018-11-04T06:04:10.875Z,3.60
2018-11-04T06:06:41.319Z,3.60
2018-11-04T06:09:12.015Z,3.60
2018-11-04T06:11:42.275Z,3.60
2018-11-04T06:14:13.413Z,3.60
2018-11-04T06:16:44.165Z,3.70
2018-11-04T06:19:14.315Z,3.80
2018-11-04T06:21:45.041Z,3.80
2018-11-04T06:24:15.454Z,3.90
2018-11-04T06:26:46.802Z,3.90
2018-11-04T06:29:17.054Z,4.00
2018-11-04T06:31:47.795Z,4.10
2018-11-04T06:34:17.952Z,3.90
2018-11-04T06:36:48.468Z,3.80
2018-11-04T06:39:19.288Z,3.80
2018-11-04T06:41:50.355Z,3.70
2018-11-04T06:44:20.788Z,3.70
2018-11-04T06:46:51.398Z,3.70
2018-11-04T06:49:21.979Z,3.60
2018-11-04T06:51:52.834Z,3.60
2018-11-04T06:54:23.290Z,3.50
2018-11-04T06:56:53.946Z,3.50
2018-11-04T06:59:24.886Z,3.40
2018-11-04T07:01:55.408Z,3.40
2018-11-04T07:04:26.778Z,3.40
2018-11-04T07:06:57.727Z,3.40
2018-11-04T07:09:28.782Z,3.40
2018-11-04T07:11:59.048Z,3.40
2018-11-04T07:14:29.892Z,3.50
2018-11-04T07:17:01.108Z,3.60
2018-11-04T07:19:32.196Z,3.70
2018-11-04T07:22:02.894Z,3.70
2018-11-04T07:24:34.213Z,3.80
2018-11-04T07:27:04.637Z,3.80
2018-11-04T07:29:35.279Z,4.00
2018-11-04T07:32:06.318Z,4.10
2018-11-04T07:34:36.317Z,4.10
2018-11-04T07:37:06.859Z,4.10
2018-11-04T07:39:38.259Z,4.20
2018-11-04T07:42:09.398Z,4.30
2018-11-04T07:44:39.633Z,4.30
2018-11-04T07:47:10.495Z,4.40
2018-11-04T07:49:41.427Z,4.50
2018-11-04T07:52:11.670Z,4.60
2018-11-04T07:54:42.550Z,4.60
2018-11-04T07:57:13.448Z,4.60
2018-11-04T07:59:44.129Z,4.70
2018-11-04T08:02:15.278Z,4.70
2018-11-04T08:04:45.770Z,4.90
2018-11-04T08:07:16.329Z,5.00
2018-11-04T08:09:47.225Z,5.20
2018-11-04T08:12:17.755Z,5.30
2018-11-04T08:14:48.278Z,5.30
2018-11-04T08:17:18.779Z,5.40
2018-11-04T08:19:49.691Z,5.60
2018-11-04T08:22:20.945Z,5.70
2018-11-04T08:24:51.800Z,5.80
2018-11-04T08:27:22.083Z,5.90
2018-11-04T08:29:53.428Z,6.10
2018-11-04T08:32:24.291Z,6.20
2018-11-04T08:34:55.101Z,6.40
2018-11-04T08:37:26.174Z,6.50
2018-11-04T08:39:56.303Z,6.70
2018-11-04T08:42:27.053Z,6.70
2018-11-04T08:44:57.608Z,6.80
2018-11-04T08:47:28.239Z,6.90
2018-11-04T08:49:58.633Z,6.90
2018-11-04T08:52:29.113Z,7.10
2018-11-04T08:55:00.057Z,7.20
2018-11-04T08:57:30.701Z,7.30
2018-11-04T09:00:01.484Z,7.20
2018-11-04T09:02:31.937Z,7.20
2018-11-04T09:05:02.399Z,7.30
2018-11-04T09:07:32.984Z,7.30
2018-11-04T09:10:03.390Z,7.40
2018-11-04T09:12:33.868Z,7.50
2018-11-04T09:15:04.011Z,7.60
2018-11-04T09:17:35.296Z,7.60
2018-11-04T09:20:07.329Z,7.70
2018-11-04T09:22:38.142Z,7.80
2018-11-04T09:25:09.802Z,7.90
2018-11-04T09:27:39.942Z,8.00
2018-11-04T09:30:13.328Z,8.10
2018-11-04T09:32:43.506Z,8.20
2018-11-04T09:35:14.371Z,8.30
2018-11-04T09:37:45.725Z,8.40
2018-11-04T09:40:15.877Z,8.60
2018-11-04T09:42:46.092Z,8.70
2018-11-04T09:45:20.495Z,8.80
2018-11-04T09:47:51.053Z,8.80
2018-11-04T09:50:22.014Z,8.80
2018-11-04T09:57:51.534Z,9.00
2018-11-04T10:00:22.952Z,9.20
2018-11-04T10:02:53.797Z,9.30
2018-11-04T10:05:24.493Z,9.30
2018-11-04T10:12:50.471Z,9.50
2018-11-04T10:15:21.159Z,9.60
2018-11-04T10:17:51.947Z,9.70
2018-11-04T10:20:22.539Z,9.80
2018-11-04T10:22:52.985Z,10.00
2018-11-04T10:25:24.164Z,10.20
2018-11-04T10:27:54.430Z,10.30
2018-11-04T10:30:24.850Z,10.40
2018-11-04T10:32:55.341Z,10.50
2018-11-04T10:35:25.806Z,10.60
2018-11-04T10:37:56.379Z,10.70
2018-11-04T10:40:26.728Z,10.70
2018-11-04T10:42:57.237Z,10.90
2018-11-04T10:45:27.578Z,11.10
2018-11-04T10:47:58.228Z,11.20
2018-11-04T10:50:29.168Z,11.20
2018-11-04T10:52:59.837Z,11.50
2018-11-04T10:55:31.061Z,11.80
2018-11-04T10:58:02.493Z,11.90
2018-11-04T11:00:38.561Z,11.90
2018-11-04T11:03:09.203Z,12.00
2018-11-04T11:05:39.409Z,12.10
2018-11-04T11:08:09.747Z,12.00
2018-11-04T11:10:41.044Z,11.90
2018-11-04T11:13:11.826Z,11.80
2018-11-04T11:15:42.448Z,11.70
2018-11-04T11:18:13.271Z,11.80
2018-11-04T11:20:43.648Z,11.90
2018-11-04T11:23:14.180Z,12.10
2018-11-04T11:25:44.822Z,12.20
2018-11-04T11:28:19.774Z,12.40
2018-11-04T11:30:49.926Z,12.40
2018-11-04T11:33:22.061Z,12.60
2018-11-04T11:35:55.360Z,12.80
2018-11-04T11:38:25.850Z,13.00
2018-11-04T11:40:57.269Z,12.90
2018-11-04T11:43:27.294Z,13.10
2018-11-04T11:45:58.420Z,13.10
2018-11-04T11:48:40.055Z,13.30
2018-11-04T11:51:10.641Z,13.40
2018-11-04T11:53:41.051Z,13.40
2018-11-04T11:56:11.202Z,13.30
2018-11-04T11:58:41.776Z,13.40
2018-11-04T12:01:13.388Z,13.50
2018-11-04T12:03:44.419Z,13.40
2018-11-04T12:06:14.799Z,13.60
2018-11-04T12:08:45.485Z,13.20
2018-11-04T12:11:16.816Z,13.40
2018-11-04T12:13:47.425Z,13.10
2018-11-04T12:16:17.983Z,13.00
2018-11-04T12:18:48.517Z,13.20
2018-11-04T12:21:19.276Z,13.40
2018-11-04T12:23:49.741Z,13.60
2018-11-04T12:26:20.556Z,13.60
2018-11-04T12:28:51.284Z,13.40
2018-11-04T12:31:21.886Z,13.60
2018-11-04T12:33:52.428Z,13.60
2018-11-04T12:36:22.816Z,13.20
2018-11-04T12:38:53.826Z,13.20
2018-11-04T12:41:24.938Z,13.00
2018-11-04T12:43:55.490Z,13.50
2018-11-04T12:46:26.156Z,13.70
2018-11-04T12:48:58.024Z,13.60
2018-11-04T12:51:28.862Z,13.40
2018-11-04T12:53:59.796Z,13.40
2018-11-04T12:56:30.191Z,13.30
2018-11-04T12:59:01.840Z,13.30
2018-11-04T13:01:33.755Z,13.30
2018-11-04T13:04:04.235Z,13.30
2018-11-04T13:06:35.061Z,13.30
2018-11-04T13:09:07.901Z,13.30
2018-11-04T13:11:39.229Z,13.30
2018-11-04T13:14:10.553Z,13.30
2018-11-04T13:16:41.039Z,13.20
2018-11-04T13:19:11.208Z,13.20
2018-11-04T13:21:42.449Z,13.20
2018-11-04T13:24:13.010Z,13.20
2018-11-04T13:26:43.444Z,13.50
2018-11-04T13:29:13.781Z,13.50
2018-11-04T13:31:44.064Z,13.40
2018-11-04T13:34:15.285Z,13.30
2018-11-04T13:36:45.918Z,13.20
2018-11-04T13:39:16.035Z,13.10
2018-11-04T13:41:46.587Z,13.00
2018-11-04T13:44:17.011Z,13.00
2018-11-04T13:46:47.797Z,13.10
2018-11-04T13:49:18.295Z,13.20
2018-11-04T13:51:48.687Z,13.30
2018-11-04T13:54:19.379Z,13.40
2018-11-04T13:56:49.663Z,13.50
2018-11-04T13:59:20.841Z,13.60
2018-11-04T14:01:51.828Z,13.50
2018-11-04T14:04:22.353Z,13.40
2018-11-04T14:06:53.137Z,13.20
2018-11-04T14:09:23.400Z,13.20
2018-11-04T14:11:54.464Z,13.10
2018-11-04T14:14:25.375Z,12.90
2018-11-04T14:16:56.176Z,12.90
2018-11-04T14:19:27.355Z,12.80
2018-11-04T14:21:57.578Z,12.70
2018-11-04T14:24:27.988Z,12.70
2018-11-04T14:26:58.255Z,12.80
2018-11-04T14:29:29.815Z,12.90
2018-11-04T14:32:00.206Z,12.90
2018-11-04T14:34:31.439Z,12.90
2018-11-04T14:37:02.071Z,13.00
2018-11-04T14:39:33.395Z,13.10
2018-11-04T14:42:04.352Z,13.30
2018-11-04T14:44:34.976Z,13.30
2018-11-04T14:47:05.659Z,13.30
2018-11-04T14:49:36.192Z,13.40
2018-11-04T14:52:07.315Z,13.50
2018-11-04T14:54:37.595Z,13.40
2018-11-04T14:57:07.827Z,13.10
2018-11-04T14:59:38.329Z,13.00
2018-11-04T15:02:08.481Z,12.80
2018-11-04T15:04:39.730Z,12.70
2018-11-04T15:07:10.271Z,12.50
2018-11-04T15:09:41.286Z,12.40
2018-11-04T15:12:11.777Z,12.30
2018-11-04T15:14:43.202Z,12.10
2018-11-04T15:17:13.157Z,11.90
2018-11-04T15:19:43.496Z,11.70
2018-11-04T15:22:15.556Z,11.60
2018-11-04T15:24:45.736Z,11.30
2018-11-04T15:27:16.558Z,11.10
2018-11-04T15:29:47.184Z,10.90
2018-11-04T15:32:18.224Z,10.80
2018-11-04T15:34:48.686Z,10.70
2018-11-04T15:37:19.056Z,10.60
2018-11-04T15:39:49.206Z,10.60
2018-11-04T15:42:20.801Z,10.50
2018-11-04T15:44:51.803Z,10.40
2018-11-04T15:47:22.411Z,10.40
2018-11-04T15:49:52.706Z,10.20
2018-11-04T15:52:23.607Z,10.10
2018-11-04T15:54:54.373Z,10.00
2018-11-04T15:57:25.480Z,10.00
2018-11-04T15:59:56.223Z,10.00
2018-11-04T16:02:27.437Z,9.90
2018-11-04T16:04:58.690Z,9.90
2018-11-04T16:07:29.522Z,9.80
2018-11-04T16:10:00.136Z,9.70
2018-11-04T16:12:31.394Z,9.70
2018-11-04T16:15:02.390Z,9.60
2018-11-04T16:17:33.921Z,9.50
2018-11-04T16:20:04.648Z,9.40
2018-11-04T16:22:35.319Z,9.20
2018-11-04T16:25:06.641Z,9.10
2018-11-04T16:27:36.824Z,9.00
2018-11-04T16:30:08.890Z,8.90
2018-11-04T16:32:39.432Z,8.80
2018-11-04T16:35:11.313Z,8.80
2018-11-04T16:37:42.599Z,8.70
2018-11-04T16:40:13.138Z,8.60
2018-11-04T16:42:44.939Z,8.60
2018-11-04T16:45:16.334Z,8.60
2018-11-04T16:47:46.594Z,8.50
2018-11-04T16:50:17.736Z,8.50
2018-11-04T16:52:47.864Z,8.50
2018-11-04T16:55:18.555Z,8.40
2018-11-04T16:57:49.670Z,8.40
2018-11-04T17:00:20.747Z,8.30
2018-11-04T17:02:51.147Z,8.30
2018-11-04T17:05:21.595Z,8.20
2018-11-04T17:07:51.791Z,8.20
2018-11-04T17:10:22.677Z,8.10
2018-11-04T17:12:52.763Z,8.10
2018-11-04T17:15:23.227Z,8.10
2018-11-04T17:17:53.327Z,8.00
2018-11-04T17:20:23.849Z,8.00
2018-11-04T17:22:54.623Z,7.90
2018-11-04T17:25:25.205Z,7.90
2018-11-04T17:27:55.247Z,7.90
2018-11-04T17:30:25.541Z,7.80
2018-11-04T17:32:55.687Z,7.90
2018-11-04T17:35:26.097Z,7.80
2018-11-04T17:37:56.543Z,7.90
2018-11-04T17:40:27.605Z,7.90
2018-11-04T17:42:58.500Z,7.80
2018-11-04T17:45:29.006Z,7.70
2018-11-04T17:47:59.902Z,7.60
2018-11-04T17:50:30.220Z,7.60
2018-11-04T17:53:00.893Z,7.60
2018-11-04T17:55:31.433Z,7.70
2018-11-04T17:58:01.942Z,7.70
2018-11-04T18:00:32.525Z,7.70
2018-11-04T18:03:04.358Z,7.80
2018-11-04T18:05:36.083Z,7.80
2018-11-04T18:08:07.504Z,7.80
2018-11-04T18:10:38.635Z,7.70
2018-11-04T18:13:09.410Z,7.70
2018-11-04T18:15:40.030Z,7.70
2018-11-04T18:18:10.350Z,7.70
2018-11-04T18:20:41.091Z,7.60
2018-11-04T18:23:11.991Z,7.60
2018-11-04T18:25:42.308Z,7.60
2018-11-04T18:28:13.445Z,7.60
2018-11-04T18:30:43.719Z,7.60
2018-11-04T18:33:14.517Z,7.50
2018-11-04T18:35:45.229Z,7.40
2018-11-04T18:38:15.618Z,7.40
2018-11-04T18:40:46.145Z,7.20
2018-11-04T18:43:17.091Z,7.10
2018-11-04T18:45:47.994Z,7.00
2018-11-04T18:48:19.479Z,6.90
2018-11-04T18:50:50.110Z,6.90
2018-11-04T18:53:21.144Z,6.90
2018-11-04T18:55:52.289Z,6.90
2018-11-04T18:58:23.027Z,6.80
2018-11-04T19:00:53.578Z,6.80
2018-11-04T19:03:24.662Z,6.70
2018-11-04T19:05:55.341Z,6.70
2018-11-04T19:08:25.647Z,6.70
2018-11-04T19:15:54.116Z,6.50
2018-11-04T19:18:24.582Z,6.40
2018-11-04T19:20:55.205Z,6.30
2018-11-04T19:23:25.777Z,6.30
2018-11-04T19:25:56.484Z,6.40
2018-11-04T19:28:26.938Z,6.50
2018-11-04T19:30:58.357Z,6.50
2018-11-04T19:33:28.701Z,6.50
2018-11-04T19:35:59.373Z,6.50
2018-11-04T19:38:29.838Z,6.40
2018-11-04T19:41:01.069Z,6.30
2018-11-04T19:43:32.377Z,6.20
2018-11-04T19:46:02.608Z,6.20
2018-11-04T19:48:33.864Z,6.10
2018-11-04T19:51:04.590Z,6.10
2018-11-04T19:53:35.690Z,6.00
2018-11-04T19:56:06.794Z,6.10
2018-11-04T19:58:37.710Z,6.20
2018-11-04T20:01:09.149Z,6.20
2018-11-04T20:03:39.294Z,6.10
2018-11-04T20:06:10.088Z,6.00
2018-11-04T20:08:46.529Z,5.90
2018-11-04T20:11:16.581Z,5.80
2018-11-04T20:13:51.839Z,5.80
2018-11-04T20:16:23.245Z,5.80
2018-11-04T20:18:58.963Z,5.70
2018-11-04T20:21:29.627Z,5.80
2018-11-04T20:24:04.486Z,5.80
2018-11-04T20:26:34.555Z,5.90
2018-11-04T20:29:05.576Z,6.10
2018-11-04T20:31:41.345Z,6.20
2018-11-04T20:34:11.652Z,6.30
2018-11-04T20:36:43.060Z,6.50
2018-11-04T20:39:18.844Z,6.70
2018-11-04T20:41:49.193Z,6.90
2018-11-04T20:44:19.350Z,7.00
2018-11-04T20:46:49.365Z,7.20
2018-11-04T20:49:25.749Z,7.40
2018-11-04T20:51:56.075Z,7.60
2018-11-04T20:54:27.353Z,7.70
2018-11-04T20:57:03.193Z,7.80
2018-11-04T20:59:33.685Z,7.90
2018-11-04T21:02:04.368Z,7.90
2018-11-04T21:04:34.673Z,7.90
2018-11-04T21:07:05.357Z,7.90
2018-11-04T21:09:36.409Z,7.80
2018-11-04T21:12:07.779Z,7.80
2018-11-04T21:14:39.081Z,7.80
2018-11-04T21:17:09.619Z,7.70
2018-11-04T21:19:40.386Z,7.70
2018-11-04T21:22:11.280Z,7.70
2018-11-04T21:24:41.765Z,7.60
2018-11-04T21:27:12.194Z,7.60
2018-11-04T21:29:43.217Z,7.60
2018-11-04T21:32:14.118Z,7.50
2018-11-04T21:34:44.544Z,7.40
2018-11-04T21:37:15.287Z,7.30
2018-11-04T21:39:45.990Z,7.30
2018-11-04T21:42:16.591Z,7.30
2018-11-04T21:44:47.797Z,7.30
2018-11-04T21:47:19.051Z,7.20
2018-11-04T21:49:49.598Z,7.10
2018-11-04T21:52:19.924Z,7.10
2018-11-04T21:54:50.921Z,7.10
2018-11-04T21:57:21.813Z,7.10
2018-11-04T21:59:52.364Z,7.00
2018-11-04T22:02:22.794Z,7.00
2018-11-04T22:04:53.149Z,7.00
2018-11-04T22:07:23.730Z,7.00
2018-11-04T22:09:55.723Z,7.00
2018-11-04T22:12:26.289Z,7.00
2018-11-04T22:14:57.096Z,6.90
2018-11-04T22:17:27.214Z,6.90
2018-11-04T22:19:58.094Z,6.90
2018-11-04T22:22:29.820Z,7.00
2018-11-04T22:25:01.270Z,6.90
2018-11-04T22:27:31.768Z,6.80
2018-11-04T22:30:02.370Z,6.80
2018-11-04T22:33:36.282Z,6.90
2018-11-04T22:36:07.280Z,6.90
2018-11-04T22:38:37.838Z,7.00
2018-11-04T22:41:08.423Z,7.00
2018-11-04T22:43:39.300Z,7.00
2018-11-04T22:46:09.973Z,7.00
2018-11-04T22:48:40.926Z,7.00
2018-11-04T22:51:11.813Z,7.00
2018-11-04T22:53:42.515Z,7.10
2018-11-04T22:56:14.366Z,7.20
2018-11-04T22:58:45.004Z,7.10
2018-11-04T23:01:15.711Z,7.10
2018-11-04T23:03:46.108Z,7.10
2018-11-04T23:06:17.353Z,7.20
2018-11-04T23:08:48.097Z,7.20
2018-11-04T23:11:18.633Z,7.10
2018-11-04T23:13:49.515Z,7.20
2018-11-04T23:16:20.985Z,7.10
2018-11-04T23:18:52.277Z,7.00
2018-11-04T23:21:23.839Z,7.00
2018-11-04T23:23:54.120Z,7.00
2018-11-04T23:26:24.651Z,7.00
2018-11-04T23:28:55.135Z,7.00
2018-11-04T23:31:25.762Z,7.00
2018-11-04T23:33:56.323Z,7.00
2018-11-04T23:36:26.837Z,7.00
2018-11-04T23:38:58.145Z,7.00
2018-11-04T23:41:28.276Z,6.90
2018-11-04T23:43:58.640Z,6.90
2018-11-04T23:46:29.554Z,6.80
2018-11-04T23:49:00.350Z,6.80
2018-11-04T23:51:31.593Z,6.70
2018-11-04T23:54:01.880Z,6.80
2018-11-04T23:56:32.462Z,6.80
2018-11-04T23:59:03.000Z,6.90
